Time;durP1;ratioP1;P1;durP2;ratioP2;P2;SDS_P1;SDS_P2;PMS_P1;PMS_P2;Temp;Humidity;BMP_temperature;BMP_pressure;BME280_temperature;BME280_humidity;BME280_pressure;Samples;Min_cycle;Max_cycle;Signal;HPM_P1;HPM_P2
2022/10/22 00:02:20;;;;;;;;;5.00;2.50;;;;;16.13;74.07;100618.06;5078954;27;45427;-46
2022/10/22 00:04:47;;;;;;;;;3.67;3.67;;;;;16.10;74.16;100618.47;5078463;28;45284;-45
2022/10/22 00:07:13;;;;;;;;;2.00;2.00;;;;;16.07;74.26;100618.81;5078608;27;45314;-42
2022/10/22 00:09:39;;;;;;;;;4.00;2.00;;;;;16.08;74.08;100629.34;5078522;27;45303;-43
2022/10/22 00:12:05;;;;;;;;;1.00;1.00;;;;;16.09;74.20;100628.34;5077648;28;45599;-43
2022/10/22 00:14:30;;;;;;;;;3.25;2.00;;;;;16.09;73.92;100632.88;5078242;27;46196;-45
2022/10/22 00:16:59;;;;;;;;;2.00;2.00;;;;;16.07;73.61;100633.06;5078671;27;45437;-43
2022/10/22 00:19:25;;;;;;;;;3.00;3.00;;;;;16.03;74.29;100622.88;5078652;27;45286;-46
2022/10/22 00:21:51;;;;;;;;;1.25;1.25;;;;;16.03;73.99;100631.78;5078630;27;45227;-46
2022/10/22 00:24:16;;;;;;;;;2.00;2.00;;;;;16.04;74.32;100640.66;5078411;27;45737;-47
2022/10/22 00:26:41;;;;;;;;;1.50;1.00;;;;;15.94;74.05;100631.03;5078110;27;45312;-46
2022/10/22 00:29:07;;;;;;;;;2.00;2.00;;;;;16.01;74.45;100646.38;5078326;27;45697;-48
2022/10/22 00:31:32;;;;;;;;;5.67;2.00;;;;;16.02;74.47;100651.56;5078816;27;45735;-43
2022/10/22 00:33:57;;;;;;;;;1.00;1.00;;;;;16.01;74.25;100655.25;5078062;27;46206;-45
2022/10/22 00:36:23;;;;;;;;;0.67;0.67;;;;;16.02;74.12;100662.31;5078353;27;45369;-46
2022/10/22 00:38:48;;;;;;;;;3.00;3.00;;;;;16.02;74.26;100665.00;5078336;27;45601;-44
2022/10/22 00:41:13;;;;;;;;;1.00;1.00;;;;;16.05;73.96;100666.44;5078321;27;45480;-44
2022/10/22 00:44:00;;;;;;;;;1.00;1.00;;;;;16.02;74.22;100665.00;5077739;27;46363;-44
2022/10/22 00:46:26;;;;;;;;;1.00;1.00;;;;;16.02;74.83;100675.72;5077955;27;45262;-44
2022/10/22 00:48:53;;;;;;;;;6.00;2.00;;;;;16.00;74.12;100672.38;5077940;27;45459;-44
2022/10/22 00:51:22;;;;;;;;;2.75;2.00;;;;;15.98;74.00;100670.91;5076832;28;45667;-43
2022/10/22 00:53:52;;;;;;;;;4.00;2.00;;;;;15.96;74.31;100676.44;5077085;27;47275;-45
2022/10/22 00:56:19;;;;;;;;;4.75;1.50;;;;;15.96;74.50;100681.81;5077655;27;45456;-45
2022/10/22 00:58:48;;;;;;;;;2.33;2.00;;;;;15.94;74.18;100683.84;5078000;27;45378;-44
2022/10/22 01:01:20;;;;;;;;;1.50;1.50;;;;;15.95;74.68;100686.34;5077832;27;45533;-44
2022/10/22 01:03:47;;;;;;;;;4.75;1.00;;;;;15.85;74.80;100674.22;5077621;27;46070;-46
2022/10/22 01:06:20;;;;;;;;;2.00;2.00;;;;;15.91;74.61;100697.63;5077722;27;45339;-43
2022/10/22 01:09:01;;;;;;;;;3.25;1.75;;;;;15.89;74.75;100697.00;5077688;27;45318;-43
2022/10/22 01:11:27;;;;;;;;;1.00;1.00;;;;;15.87;74.08;100696.31;5077694;27;45315;-44
2022/10/22 01:13:58;;;;;;;;;4.75;3.00;;;;;15.85;74.52;100693.84;5077357;27;46079;-44
2022/10/22 01:16:40;;;;;;;;;1.75;1.25;;;;;15.85;74.51;100706.41;5077791;27;45437;-43
2022/10/22 01:19:30;;;;;;;;;3.00;2.00;;;;;15.84;74.46;100710.09;5077687;27;45495;-43
2022/10/22 01:22:03;;;;;;;;;2.50;1.75;;;;;15.83;74.65;100711.94;5077611;27;45489;-45
2022/10/22 01:24:48;;;;;;;;;2.25;2.00;;;;;15.83;74.93;100711.94;5077251;27;45374;-44
2022/10/22 01:27:24;;;;;;;;;2.00;2.00;;;;;15.84;74.79;100707.41;5077243;27;45392;-43
2022/10/22 01:30:02;;;;;;;;;3.67;1.00;;;;;15.83;74.90;100722.66;5077473;27;45374;-44
2022/10/22 01:32:32;;;;;;;;;1.00;1.00;;;;;15.83;74.84;100722.66;5077633;27;45453;-42
2022/10/22 01:35:03;;;;;;;;;3.00;2.33;;;;;15.82;74.80;100728.22;5077146;27;46355;-44
2022/10/22 01:37:30;;;;;;;;;1.00;1.00;;;;;15.83;74.76;100732.56;5077177;27;45427;-44
2022/10/22 01:39:59;;;;;;;;;3.33;2.00;;;;;15.82;74.88;100739.78;5077529;28;45297;-43
2022/10/22 01:42:25;;;;;;;;;1.75;1.75;;;;;15.83;74.69;100738.75;5077206;28;45415;-45
2022/10/22 01:44:50;;;;;;;;;3.00;1.00;;;;;15.83;74.54;100735.25;5077079;27;45402;-45
2022/10/22 01:47:39;;;;;;;;;4.33;2.00;;;;;15.81;74.16;100737.31;5077371;27;45383;-47
2022/10/22 01:50:26;;;;;;;;;4.33;1.33;;;;;15.86;74.73;100740.25;5077422;28;45390;-45
2022/10/22 01:53:06;;;;;;;;;5.33;3.00;;;;;15.87;73.91;100741.94;5077457;27;45452;-44
2022/10/22 01:55:48;;;;;;;;;2.00;1.67;;;;;15.88;74.48;100739.06;5077044;28;46155;-43
2022/10/22 01:58:31;;;;;;;;;2.00;2.00;;;;;15.91;74.24;100738.69;5076880;27;45385;-45
2022/10/22 02:01:04;;;;;;;;;2.75;1.75;;;;;15.95;74.34;100733.81;5077122;27;45366;-45
2022/10/22 02:03:39;;;;;;;;;3.33;1.33;;;;;15.99;74.32;100731.59;5077001;27;45389;-44
2022/10/22 02:06:12;;;;;;;;;3.00;1.00;;;;;16.01;74.10;100735.75;5080112;27;46203;-43
2022/10/22 02:08:39;;;;;;;;;2.00;2.00;;;;;16.09;73.90;100746.41;5080332;27;45248;-44
2022/10/22 02:11:05;;;;;;;;;1.50;1.25;;;;;16.12;73.85;100726.44;5080552;27;45514;-44
2022/10/22 02:13:39;;;;;;;;;2.00;1.00;;;;;16.15;73.49;100736.81;5080548;27;45543;-43
2022/10/22 02:16:08;;;;;;;;;1.00;1.00;;;;;16.17;73.46;100743.63;5080394;27;47074;-45
2022/10/22 02:18:39;;;;;;;;;7.25;1.50;;;;;16.23;73.25;100746.63;5080238;27;45431;-44
2022/10/22 02:21:05;;;;;;;;;3.00;2.00;;;;;16.25;72.90;100742.72;5080326;27;45431;-43
2022/10/22 02:23:31;;;;;;;;;1.50;1.50;;;;;16.23;72.91;100739.41;5080506;28;45359;-43
2022/10/22 02:26:13;;;;;;;;;2.00;1.00;;;;;16.26;73.10;100739.03;5079866;27;46198;-43
2022/10/22 02:28:47;;;;;;;;;5.50;0.75;;;;;16.22;73.25;100751.13;5080046;27;45412;-43
2022/10/22 02:31:20;;;;;;;;;1.50;1.00;;;;;16.13;73.22;100741.50;5079933;27;45420;-46
2022/10/22 02:33:51;;;;;;;;;2.50;2.25;;;;;16.14;73.67;100756.63;5080406;27;45355;-44
2022/10/22 02:36:17;;;;;;;;;2.50;2.50;;;;;16.11;73.51;100754.28;5079824;27;46528;-43
2022/10/22 02:38:46;;;;;;;;;1.50;1.00;;;;;16.05;73.73;100744.28;5079961;27;45393;-44
2022/10/22 02:41:11;;;;;;;;;3.33;2.33;;;;;16.00;73.65;100754.72;5079964;27;45387;-46
2022/10/22 02:43:41;;;;;;;;;1.50;1.50;;;;;15.84;73.78;100740.44;5079712;27;45399;-44
2022/10/22 02:46:08;;;;;;;;;1.00;1.00;;;;;15.96;74.17;100762.28;5080083;27;47057;-44
2022/10/22 02:48:34;;;;;;;;;2.00;1.00;;;;;15.90;74.43;100760.34;5079804;27;45279;-43
2022/10/22 02:50:59;;;;;;;;;3.25;2.25;;;;;15.90;74.20;100776.44;5079984;27;45409;-43
2022/10/22 02:53:25;;;;;;;;;5.50;2.00;;;;;15.86;74.73;100775.13;5080112;27;45172;-43
2022/10/22 02:55:50;;;;;;;;;5.67;3.00;;;;;15.81;75.15;100782.91;5079696;27;46165;-44
2022/10/22 02:58:15;;;;;;;;;2.00;2.00;;;;;15.78;75.21;100786.75;5079546;27;45312;-44
2022/10/22 03:00:41;;;;;;;;;3.00;2.00;;;;;15.66;75.10;100772.09;5079756;27;45405;-45
2022/10/22 03:03:06;;;;;;;;;6.00;2.00;;;;;15.77;75.16;100795.00;5079962;27;45574;-43
2022/10/22 03:05:31;;;;;;;;;4.67;2.00;;;;;15.84;75.16;100794.06;5079511;27;45801;-46
2022/10/22 03:07:57;;;;;;;;;1.00;1.00;;;;;15.88;74.92;100797.25;5079554;27;45252;-45
2022/10/22 03:10:22;;;;;;;;;2.00;1.33;;;;;15.90;74.41;100796.06;5079734;27;45748;-45
2022/10/22 03:12:47;;;;;;;;;3.50;1.00;;;;;15.95;74.36;100792.84;5078351;28;45420;-45
2022/10/22 03:15:13;;;;;;;;;2.33;1.33;;;;;15.97;74.25;100793.50;5078707;27;46237;-43
2022/10/22 03:17:38;;;;;;;;;4.00;2.00;;;;;16.01;74.23;100799.31;5079455;27;45306;-42
2022/10/22 03:20:04;;;;;;;;;1.00;1.00;;;;;16.02;74.46;100798.31;5079766;27;45333;-46
2022/10/22 03:22:33;;;;;;;;;4.00;1.00;;;;;16.02;74.11;100806.38;5079618;27;45472;-46
2022/10/22 03:25:06;;;;;;;;;2.33;2.00;;;;;15.98;74.59;100805.88;5079196;28;45506;-43
2022/10/22 03:27:33;;;;;;;;;1.50;1.50;;;;;15.95;74.34;100803.56;5079134;27;45268;-45
2022/10/22 03:29:58;;;;;;;;;3.00;2.00;;;;;16.03;74.14;100821.44;5079227;27;45563;-43
2022/10/22 03:32:24;;;;;;;;;3.00;1.33;;;;;16.04;74.47;100813.22;5079624;27;45231;-45
2022/10/22 03:34:49;;;;;;;;;3.67;2.33;;;;;16.05;74.22;100812.19;5079204;27;46229;-46
2022/10/22 03:37:15;;;;;;;;;1.50;1.50;;;;;16.07;74.09;100823.59;5079256;27;45234;-43
2022/10/22 03:39:41;;;;;;;;;4.00;1.50;;;;;16.07;74.26;100823.59;5079091;27;45421;-44
2022/10/22 03:42:07;;;;;;;;;3.00;1.00;;;;;16.07;74.83;100822.75;5079422;28;45380;-43
2022/10/22 03:44:37;;;;;;;;;3.33;2.00;;;;;16.01;74.30;100812.72;5078832;27;45969;-44
2022/10/22 03:47:03;;;;;;;;;2.00;2.00;;;;;16.06;74.40;100829.97;5079086;27;45449;-46
2022/10/22 03:49:28;;;;;;;;;1.00;1.00;;;;;16.01;74.30;100823.47;5079290;27;45338;-46
2022/10/22 03:51:54;;;;;;;;;3.67;1.67;;;;;16.02;74.36;100838.56;5079595;27;45275;-46
2022/10/22 03:54:19;;;;;;;;;5.00;2.00;;;;;15.96;74.36;100826.69;5078971;27;46083;-45
2022/10/22 03:56:44;;;;;;;;;4.67;1.00;;;;;15.94;74.24;100837.59;5078744;27;45248;-46
2022/10/22 03:59:11;;;;;;;;;1.00;1.00;;;;;15.93;75.20;100838.63;5077444;28;45266;-46
2022/10/22 04:01:37;;;;;;;;;2.00;2.00;;;;;15.90;74.79;100835.47;5079033;27;45336;-44
2022/10/22 04:04:02;;;;;;;;;0.50;0.00;;;;;15.93;74.86;100837.78;5078467;27;46180;-44
2022/10/22 04:06:29;;;;;;;;;2.00;1.00;;;;;15.84;74.34;100823.59;5078681;27;45362;-45
2022/10/22 04:08:54;;;;;;;;;6.50;2.75;;;;;15.90;74.85;100838.16;5078647;27;45303;-43
2022/10/22 04:11:19;;;;;;;;;3.00;2.00;;;;;15.90;74.96;100848.88;5078596;27;45274;-44
2022/10/22 04:13:45;;;;;;;;;2.25;1.75;;;;;15.93;74.73;100849.34;5078228;27;46044;-45
2022/10/22 04:16:13;;;;;;;;;4.00;3.00;;;;;15.92;74.69;100852.19;5078530;27;45417;-44
2022/10/22 04:18:39;;;;;;;;;2.25;2.00;;;;;15.96;74.90;100853.50;5077137;28;45398;-45
2022/10/22 04:21:06;;;;;;;;;3.00;1.67;;;;;15.88;75.00;100853.56;5077467;28;45192;-43
2022/10/22 04:23:32;;;;;;;;;2.00;2.00;;;;;15.93;74.95;100853.91;5077939;28;45437;-44
2022/10/22 04:26:03;;;;;;;;;3.00;1.00;;;;;15.98;74.73;100861.41;5078478;27;45264;-43
2022/10/22 04:28:28;;;;;;;;;5.00;3.67;;;;;15.95;74.85;100859.91;5077395;27;45398;-43
2022/10/22 04:30:54;;;;;;;;;4.75;2.00;;;;;15.96;74.77;100862.41;5078339;27;45643;-44
2022/10/22 04:33:19;;;;;;;;;1.67;1.67;;;;;15.84;74.87;100850.41;5078472;28;46249;-44
2022/10/22 04:35:45;;;;;;;;;3.33;3.33;;;;;15.94;74.94;100863.59;5078087;28;45240;-43
2022/10/22 04:38:11;;;;;;;;;3.00;2.00;;;;;15.94;74.89;100867.13;5078200;28;45295;-43
2022/10/22 04:40:37;;;;;;;;;2.00;2.00;;;;;15.95;75.14;100874.16;5078411;27;45446;-42
2022/10/22 04:43:02;;;;;;;;;1.50;1.50;;;;;15.96;74.96;100878.50;5077696;27;47066;-43
2022/10/22 04:45:27;;;;;;;;;4.00;2.00;;;;;15.92;74.95;100882.53;5077826;27;45362;-43
2022/10/22 04:47:53;;;;;;;;;4.00;2.00;;;;;15.84;75.19;100865.66;5076659;28;45966;-42
2022/10/22 04:50:18;;;;;;;;;5.00;1.00;;;;;15.92;74.83;100881.72;5076962;28;45487;-43
2022/10/22 04:52:44;;;;;;;;;4.33;3.33;;;;;15.94;75.38;100885.06;5077889;27;46241;-44
2022/10/22 04:55:09;;;;;;;;;3.33;1.33;;;;;15.97;75.37;100884.72;5077752;27;45318;-42
2022/10/22 04:57:35;;;;;;;;;2.00;2.00;;;;;15.93;75.00;100881.56;5077953;27;45752;-45
2022/10/22 05:00:00;;;;;;;;;4.00;3.00;;;;;15.89;75.05;100872.19;5077810;27;45345;-43
2022/10/22 05:02:25;;;;;;;;;1.00;1.00;;;;;15.95;74.94;100876.00;5077746;27;46095;-42
2022/10/22 05:04:51;;;;;;;;;6.00;3.00;;;;;15.96;75.26;100885.72;5077669;27;45393;-45
2022/10/22 05:07:16;;;;;;;;;2.00;0.75;;;;;15.95;75.07;100889.41;5077732;27;45415;-43
2022/10/22 05:09:41;;;;;;;;;1.50;1.50;;;;;15.94;75.47;100893.13;5077897;27;45394;-45
2022/10/22 05:12:07;;;;;;;;;3.33;2.00;;;;;15.95;75.10;100890.25;5077394;27;47008;-43
2022/10/22 05:14:32;;;;;;;;;1.00;1.00;;;;;15.95;75.26;100892.09;5077286;27;45340;-44
2022/10/22 05:16:57;;;;;;;;;3.33;2.00;;;;;15.96;75.45;100896.44;5077722;27;45408;-45
2022/10/22 05:19:25;;;;;;;;;2.00;2.00;;;;;15.92;75.54;100895.13;5077761;27;45442;-43
2022/10/22 05:21:56;;;;;;;;;2.00;2.00;;;;;15.92;75.50;100893.28;5077593;27;46357;-42
2022/10/22 05:24:21;;;;;;;;;1.00;1.00;;;;;15.93;75.52;100910.22;5077412;27;45374;-42
2022/10/22 05:26:51;;;;;;;;;3.67;2.00;;;;;15.94;75.44;100911.91;5077583;27;45396;-41
2022/10/22 05:29:16;;;;;;;;;5.00;2.00;;;;;15.91;75.94;100914.94;5077640;27;45203;-44
2022/10/22 05:31:42;;;;;;;;;4.00;2.00;;;;;15.87;75.57;100908.25;5077103;27;45646;-42
2022/10/22 05:34:07;;;;;;;;;4.33;3.67;;;;;15.85;76.01;100907.59;5077465;27;45288;-43
2022/10/22 05:36:32;;;;;;;;;4.00;3.00;;;;;15.86;76.12;100917.31;5077486;27;45362;-43
2022/10/22 05:38:58;;;;;;;;;2.00;2.00;;;;;15.82;76.20;100910.63;5077334;27;45302;-42
2022/10/22 05:41:25;;;;;;;;;5.33;3.00;;;;;15.85;76.20;100916.47;5077553;27;45690;-43
2022/10/22 05:43:54;;;;;;;;;2.67;2.00;;;;;15.81;76.08;100908.97;5076312;27;45485;-43
2022/10/22 05:46:20;;;;;;;;;2.67;2.00;;;;;15.79;75.69;100917.16;5077368;27;45325;-43
2022/10/22 05:48:54;;;;;;;;;2.00;2.00;;;;;15.78;75.94;100922.72;5077496;27;45398;-45
2022/10/22 05:51:20;;;;;;;;;3.67;1.67;;;;;15.70;75.94;100924.44;5076975;27;46299;-43
2022/10/22 05:53:51;;;;;;;;;2.00;2.00;;;;;15.65;76.98;100917.94;5077057;27;45303;-46
2022/10/22 05:56:16;;;;;;;;;4.33;2.67;;;;;15.58;76.58;100917.75;5077359;27;45347;-43
2022/10/22 05:58:43;;;;;;;;;1.00;1.00;;;;;15.60;76.81;100925.63;5077323;27;45335;-44
2022/10/22 06:01:14;;;;;;;;;2.00;2.00;;;;;15.53;77.33;100921.97;5077135;27;45308;-45
2022/10/22 06:03:40;;;;;;;;;4.33;2.00;;;;;15.35;77.79;100914.19;5077148;27;45373;-43
2022/10/22 06:06:17;;;;;;;;;4.00;2.00;;;;;15.40;77.65;100922.53;5077131;27;45373;-46
2022/10/22 06:08:43;;;;;;;;;6.00;2.00;;;;;15.43;77.58;100935.59;5077356;28;45319;-44
2022/10/22 06:11:09;;;;;;;;;2.67;2.67;;;;;15.42;78.00;100932.09;5076742;27;45308;-44
2022/10/22 06:13:34;;;;;;;;;5.00;3.00;;;;;15.43;77.81;100930.25;5076763;27;45296;-45
2022/10/22 06:15:59;;;;;;;;;4.00;2.67;;;;;15.43;77.65;100935.59;5075554;28;45501;-44
2022/10/22 06:18:25;;;;;;;;;4.33;1.33;;;;;15.41;77.97;100937.59;5076958;27;45405;-44
2022/10/22 06:20:50;;;;;;;;;4.00;2.00;;;;;15.25;77.28;100914.38;5076766;27;46266;-44
2022/10/22 06:23:15;;;;;;;;;2.00;2.00;;;;;15.33;77.85;100937.63;5076638;27;45157;-45
2022/10/22 06:25:42;;;;;;;;;3.00;2.00;;;;;15.33;78.17;100943.81;5076770;27;45339;-45
2022/10/22 06:28:08;;;;;;;;;3.00;3.00;;;;;15.29;78.61;100947.03;5076595;27;45357;-44
2022/10/22 06:30:33;;;;;;;;;6.00;3.00;;;;;15.25;78.56;100951.88;5077005;27;45380;-45
2022/10/22 06:32:58;;;;;;;;;5.00;3.33;;;;;15.25;79.04;100953.75;5077093;27;45474;-45
2022/10/22 06:35:24;;;;;;;;;3.33;3.33;;;;;15.29;78.57;100963.09;5076910;27;45447;-44
2022/10/22 06:37:49;;;;;;;;;5.33;4.00;;;;;15.30;78.49;100956.75;5077652;27;45413;-45
2022/10/22 06:40:15;;;;;;;;;6.00;2.00;;;;;15.28;78.82;100958.75;5077031;27;45346;-46
2022/10/22 06:42:41;;;;;;;;;4.00;3.00;;;;;15.30;78.46;100968.31;5076424;27;45334;-44
2022/10/22 06:45:07;;;;;;;;;2.00;2.00;;;;;15.30;78.63;100971.00;5076446;27;45378;-44
2022/10/22 06:47:32;;;;;;;;;4.67;3.00;;;;;15.33;78.52;100967.13;5076674;27;45483;-45
2022/10/22 06:49:58;;;;;;;;;3.00;2.33;;;;;15.35;78.66;100968.63;5076195;27;45579;-43
2022/10/22 06:52:23;;;;;;;;;3.00;3.00;;;;;15.35;78.75;100976.66;5079893;27;45302;-46
2022/10/22 06:54:49;;;;;;;;;5.00;3.00;;;;;15.41;78.44;100983.19;5079939;27;45273;-44
2022/10/22 06:57:14;;;;;;;;;6.33;3.33;;;;;15.49;78.22;100985.84;5080170;27;45154;-45
2022/10/22 06:59:39;;;;;;;;;3.00;2.00;;;;;15.57;77.76;100988.50;5079654;27;46831;-44
2022/10/22 07:02:05;;;;;;;;;3.00;3.00;;;;;15.54;77.61;100972.75;5079420;27;45265;-45
2022/10/22 07:04:30;;;;;;;;;3.00;3.00;;;;;15.61;77.53;100988.97;5079823;27;45239;-45
2022/10/22 07:06:56;;;;;;;;;6.00;4.00;;;;;15.74;77.58;100999.19;5079850;27;45410;-47
2022/10/22 07:09:21;;;;;;;;;5.33;3.67;;;;;15.74;76.90;100999.19;5079410;27;46166;-43
2022/10/22 07:11:47;;;;;;;;;3.33;3.33;;;;;15.90;76.59;101004.47;5079452;27;45419;-43
2022/10/22 07:14:13;;;;;;;;;6.67;4.33;;;;;16.04;76.08;101008.25;5079395;27;45895;-44
2022/10/22 07:16:41;;;;;;;;;4.33;3.00;;;;;16.17;75.76;101011.19;5079481;27;45472;-43
2022/10/22 07:19:07;;;;;;;;;8.67;3.33;;;;;16.26;75.05;101017.34;5079351;27;45563;-44
2022/10/22 07:21:32;;;;;;;;;4.00;2.67;;;;;16.38;74.89;101024.00;5079363;27;45267;-44
2022/10/22 07:23:58;;;;;;;;;8.67;5.67;;;;;16.43;74.31;101019.78;5079253;27;45525;-43
2022/10/22 07:26:24;;;;;;;;;8.67;5.33;;;;;16.54;74.20;101021.19;5079702;27;45247;-43
2022/10/22 07:28:50;;;;;;;;;6.00;4.00;;;;;16.64;73.52;101029.00;5079324;27;46302;-45
2022/10/22 07:31:16;;;;;;;;;7.00;5.33;;;;;16.70;73.38;101031.00;5078952;27;45263;-43
2022/10/22 07:33:42;;;;;;;;;3.00;3.00;;;;;16.76;73.11;101021.41;5079348;27;45318;-45
2022/10/22 07:36:10;;;;;;;;;3.00;3.00;;;;;16.84;72.85;101026.72;5079506;27;45370;-45
2022/10/22 07:38:36;;;;;;;;;6.00;6.00;;;;;16.90;72.70;101028.69;5079005;27;46063;-47
2022/10/22 07:41:02;;;;;;;;;4.25;4.00;;;;;17.04;71.99;101027.06;5078993;27;45367;-43
2022/10/22 07:43:27;;;;;;;;;7.67;6.67;;;;;17.09;71.71;101033.53;5078775;27;45225;-43
2022/10/22 07:45:54;;;;;;;;;8.67;6.00;;;;;17.12;71.82;101032.34;5079031;27;45401;-44
2022/10/22 07:48:20;;;;;;;;;6.50;4.00;;;;;17.17;71.61;101030.78;5078814;27;45934;-43
2022/10/22 07:50:49;;;;;;;;;4.50;4.25;;;;;17.15;71.59;101029.28;5078852;27;45401;-44
2022/10/22 07:53:15;;;;;;;;;4.75;3.00;;;;;17.00;71.46;101037.31;5078900;27;45348;-44
2022/10/22 07:55:40;;;;;;;;;5.00;3.00;;;;;16.83;72.03;101039.31;5078953;27;45446;-45
2022/10/22 07:58:05;;;;;;;;;3.00;3.00;;;;;16.79;71.96;101039.84;5078383;27;46243;-43
2022/10/22 08:00:31;;;;;;;;;6.75;4.00;;;;;16.68;72.36;101035.69;5078465;27;45407;-48
2022/10/22 08:02:56;;;;;;;;;3.00;3.00;;;;;16.66;72.80;101046.63;5078684;27;45722;-43
2022/10/22 08:05:22;;;;;;;;;2.50;2.00;;;;;16.62;72.55;101044.47;5078841;27;45380;-45
2022/10/22 08:07:47;;;;;;;;;4.00;3.00;;;;;16.61;72.89;101045.50;5078528;27;45898;-44
2022/10/22 08:10:13;;;;;;;;;6.00;3.67;;;;;16.50;72.73;101027.09;5078362;27;45274;-46
2022/10/22 08:12:39;;;;;;;;;5.00;4.00;;;;;16.61;72.53;101051.72;5078744;27;45441;-46
2022/10/22 08:15:05;;;;;;;;;3.75;3.00;;;;;16.66;72.65;101059.22;5078577;27;45331;-45
2022/10/22 08:17:30;;;;;;;;;9.00;4.00;;;;;16.69;72.70;101053.50;5078046;27;46928;-44
2022/10/22 08:19:56;;;;;;;;;5.33;4.00;;;;;16.80;72.23;101055.78;5078301;27;45201;-47
2022/10/22 08:22:21;;;;;;;;;11.67;6.00;;;;;17.00;71.63;101044.56;5078336;27;45471;-45
2022/10/22 08:24:46;;;;;;;;;4.00;4.00;;;;;17.09;71.37;101054.22;5078584;27;45293;-43
2022/10/22 08:27:12;;;;;;;;;7.00;5.00;;;;;17.11;71.21;101058.41;5078238;27;45162;-45
2022/10/22 08:29:37;;;;;;;;;4.00;4.00;;;;;17.09;70.99;101057.72;5077910;27;45299;-44
2022/10/22 08:32:03;;;;;;;;;5.33;4.33;;;;;17.12;71.28;101060.06;5077987;28;45463;-43
2022/10/22 08:34:29;;;;;;;;;3.00;1.75;;;;;17.16;70.97;101057.84;5078273;27;45337;-45
2022/10/22 08:36:55;;;;;;;;;5.00;5.00;;;;;17.22;70.71;101049.03;5077952;27;45393;-45
2022/10/22 08:39:20;;;;;;;;;2.00;2.00;;;;;17.30;70.40;101048.13;5077938;27;45325;-45
2022/10/22 08:42:00;;;;;;;;;5.00;2.50;;;;;17.38;70.13;101043.50;5078193;28;45453;-45
2022/10/22 08:44:48;;;;;;;;;4.00;3.00;;;;;17.52;69.44;101044.53;5078154;27;45785;-43
2022/10/22 08:47:14;;;;;;;;;5.00;4.00;;;;;17.76;68.99;101050.69;5077508;27;46639;-43
2022/10/22 08:49:41;;;;;;;;;3.50;3.50;;;;;17.91;68.74;101055.06;5078058;27;45447;-46
2022/10/22 08:52:12;;;;;;;;;4.75;3.00;;;;;18.10;68.75;101055.50;5078050;27;45691;-44
2022/10/22 08:54:57;;;;;;;;;3.00;3.00;;;;;19.16;66.61;101061.97;5078072;27;45492;-42
2022/10/22 08:57:30;;;;;;;;;6.50;5.50;;;;;21.34;60.63;101062.00;5077590;27;47247;-42
2022/10/22 09:00:03;;;;;;;;;4.25;2.75;;;;;22.89;56.51;101056.59;5077738;27;45313;-43
2022/10/22 09:02:55;;;;;;;;;5.50;4.25;;;;;23.41;54.38;101055.31;5077859;27;45498;-43
2022/10/22 09:06:05;;;;;;;;;5.50;2.25;;;;;25.06;50.18;101054.22;5078003;27;45423;-40
2022/10/22 09:08:30;;;;;;;;;7.20;3.40;;;;;26.62;46.34;101057.06;5014749;28;46216;-40
2022/10/22 09:11:14;;;;;;;;;6.25;5.00;;;;;27.52;44.56;101063.47;5014998;28;45325;-42
2022/10/22 09:13:43;;;;;;;;;5.00;2.00;;;;;28.44;42.87;101061.91;5014557;28;45352;-44
2022/10/22 09:16:25;;;;;;;;;3.00;2.20;;;;;29.25;43.04;101050.88;5015196;28;45428;-42
2022/10/22 09:19:04;;;;;;;;;4.60;2.40;;;;;29.60;40.62;101059.59;5014801;28;46180;-42
2022/10/22 09:22:00;;;;;;;;;4.80;3.00;;;;;29.86;40.02;101058.63;5014829;28;45321;-42
2022/10/22 09:24:43;;;;;;;;;2.40;2.40;;;;;29.43;42.45;101037.81;5015023;28;45393;-42
2022/10/22 09:27:12;;;;;;;;;2.40;2.40;;;;;28.91;39.94;101042.09;5014935;28;45513;-41
2022/10/22 09:29:37;;;;;;;;;2.00;2.00;;;;;28.51;41.52;101042.56;5014880;28;45538;-43
2022/10/22 09:32:03;;;;;;;;;3.75;3.75;;;;;28.35;41.38;101045.13;5014884;28;45401;-42
2022/10/22 09:34:29;;;;;;;;;3.00;2.75;;;;;28.29;44.17;101054.34;5014798;28;45379;-44
2022/10/22 09:37:16;;;;;;;;;10.00;5.25;;;;;28.02;42.10;101039.78;5015073;28;45434;-43
2022/10/22 09:39:49;;;;;;;;;2.60;2.60;;;;;28.18;42.36;101043.53;5014665;28;45375;-44
2022/10/22 09:42:17;;;;;;;;;2.00;2.00;;;;;28.47;41.36;101052.38;5014573;28;45572;-44
2022/10/22 09:44:43;;;;;;;;;2.40;2.40;;;;;28.98;41.54;101042.72;5030151;28;45333;-43
2022/10/22 09:47:30;;;;;;;;;2.20;1.00;;;;;29.79;42.64;101049.81;5077324;27;45385;-42
2022/10/22 09:50:43;;;;;;;;;2.00;2.00;;;;;30.88;39.03;101033.38;5076891;27;46481;-44
2022/10/22 09:53:34;;;;;;;;;3.80;2.20;;;;;31.46;36.98;101033.88;5014388;28;45557;-43
2022/10/22 09:56:07;;;;;;;;;3.40;2.40;;;;;31.69;36.68;101033.25;5014481;28;45355;-42
2022/10/22 09:58:44;;;;;;;;;5.40;3.00;;;;;31.29;36.42;101023.19;5014791;28;45504;-42
2022/10/22 10:01:24;;;;;;;;;3.00;3.00;;;;;30.34;36.71;101031.94;5014275;28;46248;-44
2022/10/22 10:03:49;;;;;;;;;5.80;2.60;;;;;30.21;37.31;101041.50;5014249;28;45316;-43
2022/10/22 10:06:21;;;;;;;;;9.50;5.75;;;;;30.14;38.23;101029.94;5014273;28;45420;-41
2022/10/22 10:08:47;;;;;;;;;4.80;4.20;;;;;30.43;36.50;101043.22;5014586;28;45426;-41
2022/10/22 10:11:25;;;;;;;;;10.50;7.25;;;;;30.40;37.85;100992.41;5014190;28;46268;-41
2022/10/22 10:13:53;;;;;;;;;3.80;3.80;;;;;31.13;36.38;101036.09;5014073;28;45392;-43
2022/10/22 10:16:39;;;;;;;;;5.20;4.20;;;;;31.00;36.74;101031.97;5014326;28;45532;-42
2022/10/22 10:19:43;;;;;;;;;6.00;5.00;;;;;31.14;39.54;101032.25;5014457;28;45386;-43
2022/10/22 10:22:42;;;;;;;;;3.40;2.20;;;;;31.90;36.17;101046.91;4916554;28;46337;-44
2022/10/22 10:25:13;;;;;;;;;5.00;4.60;;;;;32.24;35.13;101041.53;4916874;28;45400;-41
2022/10/22 10:27:57;;;;;;;;;4.40;4.00;;;;;32.81;34.90;101042.78;4982137;28;45278;-41
2022/10/22 10:30:24;;;;;;;;;6.40;3.20;;;;;33.18;32.17;101041.41;4998009;28;45432;-44
2022/10/22 10:33:21;;;;;;;;;4.20;2.80;;;;;33.14;32.96;101034.81;4997484;28;47066;-43
2022/10/22 10:36:19;;;;;;;;;10.80;4.00;;;;;32.21;34.54;101040.16;4997760;28;45401;-44
2022/10/22 10:38:55;;;;;;;;;3.60;3.60;;;;;30.78;36.01;101046.00;4958308;28;45516;-43
2022/10/22 10:41:39;;;;;;;;;5.80;5.80;;;;;30.05;37.85;101051.59;4958845;28;45467;-41
2022/10/22 10:45:06;;;;;;;;;5.80;4.80;;;;;30.45;37.97;101044.56;4958113;28;46191;-41
2022/10/22 10:47:31;;;;;;;;;3.40;3.40;;;;;30.58;37.11;101048.69;4890141;29;45426;-43
2022/10/22 10:50:17;;;;;;;;;4.00;3.50;;;;;30.28;38.15;101047.56;4900576;29;45385;-41
2022/10/22 10:53:20;;;;;;;;;3.60;3.60;;;;;30.38;37.47;101052.22;4900828;29;45368;-44
2022/10/22 10:56:20;;;;;;;;;5.80;4.00;;;;;30.04;38.44;101049.94;4900152;29;47066;-44
2022/10/22 10:58:56;;;;;;;;;4.20;4.20;;;;;29.58;38.21;101052.47;4924926;28;45499;-44
2022/10/22 11:01:45;;;;;;;;;5.00;3.00;;;;;29.25;38.12;101045.41;4938775;28;45485;-43
2022/10/22 11:04:29;;;;;;;;;5.20;4.40;;;;;29.43;38.32;101048.78;4927192;28;45600;-44
2022/10/22 11:06:59;;;;;;;;;2.00;1.20;;;;;29.79;38.52;101052.56;4938723;28;45498;-42
2022/10/22 11:09:32;;;;;;;;;3.80;3.20;;;;;30.14;37.92;101042.84;4938270;28;45378;-43
2022/10/22 11:12:03;;;;;;;;;4.80;2.20;;;;;29.90;37.21;101050.69;4938816;28;45407;-43
2022/10/22 11:14:34;;;;;;;;;6.20;2.40;;;;;29.80;37.91;101048.75;4952549;28;45441;-42
2022/10/22 11:17:07;;;;;;;;;3.80;2.60;;;;;29.73;38.42;101053.63;4996788;28;47095;-45
2022/10/22 11:19:55;;;;;;;;;4.00;2.80;;;;;29.83;40.54;101053.66;4996857;28;45532;-43
2022/10/22 11:22:40;;;;;;;;;6.00;3.20;;;;;29.98;37.84;101047.44;5065971;28;45327;-45
2022/10/22 11:25:17;;;;;;;;;3.00;3.00;;;;;30.15;38.42;101045.34;5079518;27;45500;-42
2022/10/22 11:27:45;;;;;;;;;4.20;4.00;;;;;30.33;36.96;101046.75;5079164;27;45256;-43
2022/10/22 11:30:17;;;;;;;;;3.20;2.80;;;;;30.56;36.83;101038.00;5079150;28;45406;-43
2022/10/22 11:32:47;;;;;;;;;2.80;2.80;;;;;30.71;36.42;101039.91;5079210;27;45263;-43
2022/10/22 11:35:21;;;;;;;;;4.00;2.60;;;;;31.14;39.05;101042.41;5079533;27;45473;-43
2022/10/22 11:37:47;;;;;;;;;3.80;3.00;;;;;32.15;34.20;101049.56;5078016;27;45451;-44
2022/10/22 11:40:15;;;;;;;;;4.20;3.00;;;;;33.68;32.36;101041.97;5079058;27;45479;-43